createdAt,value
2022-08-30T00:00:56.505Z,3.35
2022-08-30T00:03:25.477Z,4.28
2022-08-30T00:05:54.440Z,3.90
2022-08-30T00:08:24.783Z,3.90
2022-08-30T00:10:53.084Z,4.28
2022-08-30T00:13:32.883Z,3.80
2022-08-30T00:16:01.255Z,3.97
2022-08-30T00:18:30.371Z,4.15
2022-08-30T00:21:05.162Z,3.50
2022-08-30T00:23:35.110Z,4.20
2022-08-30T00:26:03.662Z,3.40
2022-08-30T00:28:36.303Z,4.22
2022-08-30T00:31:09.400Z,3.92
2022-08-30T00:33:38.509Z,4.25
2022-08-30T00:36:07.495Z,3.70
2022-08-30T00:38:36.072Z,4.10
2022-08-30T00:41:11.585Z,3.60
2022-08-30T00:43:42.093Z,4.05
2022-08-30T00:46:16.629Z,4.15
2022-08-30T00:48:50.874Z,4.20
2022-08-30T00:51:22.325Z,3.97
2022-08-30T00:53:56.913Z,4.40
2022-08-30T00:56:30.861Z,3.65
2022-08-30T00:59:05.193Z,3.70
2022-08-30T01:01:37.773Z,4.00
2022-08-30T01:04:08.769Z,3.60
2022-08-30T01:06:37.437Z,3.70
2022-08-30T01:09:07.998Z,3.30
2022-08-30T01:11:41.911Z,3.05
2022-08-30T01:14:12.778Z,3.90
2022-08-30T01:16:44.545Z,3.95
2022-08-30T01:19:28.334Z,3.50
2022-08-30T01:22:03.565Z,3.15
2022-08-30T01:24:37.404Z,3.50
2022-08-30T01:27:06.410Z,3.58
2022-08-30T01:29:36.241Z,3.50
2022-08-30T01:32:07.309Z,3.47
2022-08-30T01:34:35.556Z,3.30
2022-08-30T01:37:05.531Z,3.53
2022-08-30T01:39:36.662Z,3.33
2022-08-30T01:42:07.020Z,3.90
2022-08-30T01:44:38.435Z,3.35
2022-08-30T01:47:08.872Z,3.53
2022-08-30T01:49:39.180Z,2.95
2022-08-30T01:52:09.081Z,3.22
2022-08-30T01:54:46.221Z,3.10
2022-08-30T01:57:18.484Z,3.33
2022-08-30T01:59:50.287Z,2.67
2022-08-30T02:02:27.910Z,3.17
2022-08-30T02:04:58.522Z,2.60
2022-08-30T02:07:27.317Z,2.92
2022-08-30T02:10:00.499Z,2.95
2022-08-30T02:12:30.528Z,3.00
2022-08-30T02:15:00.806Z,3.00
2022-08-30T02:17:31.261Z,3.00
2022-08-30T02:20:00.429Z,3.10
2022-08-30T02:22:29.181Z,2.90
2022-08-30T02:24:59.472Z,2.95
2022-08-30T02:27:28.255Z,2.85
2022-08-30T02:29:59.217Z,3.50
2022-08-30T02:32:28.512Z,2.75
2022-08-30T02:34:58.046Z,3.15
2022-08-30T02:37:27.975Z,2.75
2022-08-30T02:40:01.804Z,2.80
2022-08-30T02:42:30.363Z,2.50
2022-08-30T02:44:58.764Z,2.47
2022-08-30T02:47:27.460Z,2.97
2022-08-30T02:49:55.803Z,2.22
2022-08-30T02:52:24.262Z,2.90
2022-08-30T02:54:59.756Z,2.90
2022-08-30T02:57:31.651Z,2.55
2022-08-30T03:00:03.310Z,2.75
2022-08-30T03:02:32.727Z,2.90
2022-08-30T03:05:04.224Z,2.40
2022-08-30T03:07:32.702Z,2.83
2022-08-30T03:10:02.390Z,3.42
2022-08-30T03:12:32.475Z,2.85
2022-08-30T03:15:04.149Z,2.70
2022-08-30T03:17:37.023Z,2.85
2022-08-30T03:20:10.349Z,3.20
2022-08-30T03:22:40.111Z,3.15
2022-08-30T03:25:10.512Z,4.13
2022-08-30T03:27:44.389Z,2.80
2022-08-30T03:30:14.480Z,3.17
2022-08-30T03:32:43.375Z,2.97
2022-08-30T03:35:14.096Z,3.50
2022-08-30T03:37:44.566Z,3.58
2022-08-30T03:40:18.795Z,3.17
2022-08-30T03:42:49.409Z,3.00
2022-08-30T03:45:20.034Z,3.28
2022-08-30T03:47:49.677Z,3.47
2022-08-30T03:50:24.479Z,3.10
2022-08-30T03:52:53.640Z,3.70
2022-08-30T03:55:28.492Z,2.95
2022-08-30T03:58:01.375Z,2.90
2022-08-30T04:00:30.483Z,3.20
2022-08-30T04:02:59.346Z,2.85
2022-08-30T04:05:28.324Z,3.50
2022-08-30T04:07:58.760Z,3.30
2022-08-30T04:10:29.794Z,3.17
2022-08-30T04:12:58.464Z,3.53
2022-08-30T04:15:29.139Z,4.10
2022-08-30T04:17:58.526Z,4.57
2022-08-30T04:20:29.913Z,3.92
2022-08-30T04:22:58.673Z,5.47
2022-08-30T04:25:27.459Z,4.53
2022-08-30T04:27:57.233Z,4.88
2022-08-30T04:30:28.723Z,6.13
2022-08-30T04:33:02.963Z,6.43
2022-08-30T04:35:34.816Z,6.88
2022-08-30T04:38:04.387Z,7.72
2022-08-30T04:40:33.082Z,8.60
2022-08-30T04:43:02.588Z,9.38
2022-08-30T04:45:32.883Z,9.27
2022-08-30T04:48:02.551Z,9.88
2022-08-30T04:50:31.120Z,10.23
2022-08-30T04:53:02.905Z,9.63
2022-08-30T04:55:35.708Z,9.45
2022-08-30T04:58:05.882Z,10.52
2022-08-30T05:00:35.855Z,8.65
2022-08-30T05:03:07.092Z,9.85
2022-08-30T05:05:41.979Z,11.02
2022-08-30T05:08:14.997Z,11.15
2022-08-30T05:10:58.724Z,11.38
2022-08-30T05:13:35.569Z,10.48
2022-08-30T05:16:12.285Z,8.02
2022-08-30T05:18:42.601Z,8.40
2022-08-30T05:21:57.045Z,8.68
2022-08-30T05:24:33.118Z,8.27
2022-08-30T05:27:02.090Z,9.30
2022-08-30T05:29:32.245Z,8.82
2022-08-30T05:32:02.288Z,8.90
2022-08-30T05:34:32.236Z,10.00
2022-08-30T05:37:02.883Z,11.15
2022-08-30T05:39:50.722Z,10.20
2022-08-30T05:42:23.493Z,10.98
2022-08-30T05:44:53.527Z,11.82
2022-08-30T05:47:26.904Z,11.23
2022-08-30T05:49:55.708Z,10.32
2022-08-30T05:52:24.740Z,10.18
2022-08-30T05:54:56.144Z,9.95
2022-08-30T05:57:24.956Z,11.07
2022-08-30T05:59:53.975Z,10.55
2022-08-30T06:02:24.048Z,9.93
2022-08-30T06:04:54.694Z,9.23
2022-08-30T06:07:27.003Z,8.43
2022-08-30T06:09:55.443Z,8.45
2022-08-30T06:12:24.829Z,9.00
2022-08-30T06:14:53.822Z,9.30
2022-08-30T06:17:26.662Z,10.90
2022-08-30T06:20:00.188Z,8.43
2022-08-30T06:22:31.734Z,8.75
2022-08-30T06:24:59.913Z,10.48
2022-08-30T06:27:33.586Z,11.70
2022-08-30T06:30:03.104Z,11.93
2022-08-30T06:32:36.911Z,9.10
2022-08-30T06:35:07.840Z,7.40
2022-08-30T06:37:36.909Z,8.52
2022-08-30T06:40:07.514Z,7.95
2022-08-30T06:42:38.994Z,8.27
2022-08-30T06:45:11.088Z,9.18
2022-08-30T06:47:41.362Z,8.07
2022-08-30T06:50:14.680Z,7.45
2022-08-30T06:52:48.951Z,7.95
2022-08-30T06:55:22.288Z,7.55
2022-08-30T06:57:50.724Z,10.77
2022-08-30T07:00:19.564Z,11.30
2022-08-30T07:02:49.483Z,10.85
2022-08-30T07:05:20.646Z,10.98
2022-08-30T07:07:49.228Z,9.27
2022-08-30T07:10:18.803Z,11.10
2022-08-30T07:12:47.649Z,9.32
2022-08-30T07:15:20.580Z,10.68
2022-08-30T07:18:08.549Z,9.18
2022-08-30T07:20:40.973Z,9.52
2022-08-30T07:23:09.729Z,10.35
2022-08-30T07:25:39.117Z,11.10
2022-08-30T07:28:10.971Z,12.55
2022-08-30T07:30:50.504Z,13.05
2022-08-30T07:33:22.030Z,10.15
2022-08-30T07:35:56.624Z,10.13
2022-08-30T07:38:27.952Z,10.27
2022-08-30T07:41:01.102Z,9.05
2022-08-30T07:43:30.844Z,9.63
2022-08-30T07:46:02.830Z,9.15
2022-08-30T07:48:38.974Z,8.30
2022-08-30T07:51:11.630Z,8.85
2022-08-30T07:53:41.531Z,7.90
2022-08-30T07:56:12.198Z,7.43
2022-08-30T07:58:41.886Z,6.45
2022-08-30T08:01:13.528Z,6.72
2022-08-30T08:03:46.886Z,7.82
2022-08-30T08:06:22.474Z,7.85
2022-08-30T08:08:55.941Z,7.07
2022-08-30T08:11:31.669Z,5.30
2022-08-30T08:14:04.941Z,5.43
2022-08-30T08:16:35.444Z,5.10
2022-08-30T08:19:08.875Z,4.97
2022-08-30T08:21:41.698Z,5.38
2022-08-30T08:24:13.287Z,4.50
2022-08-30T08:26:45.207Z,5.15
2022-08-30T08:29:14.821Z,5.32
2022-08-30T08:31:51.167Z,4.55
2022-08-30T08:34:23.328Z,4.78
2022-08-30T08:36:52.858Z,4.20
2022-08-30T08:39:21.731Z,4.50
2022-08-30T08:42:00.755Z,4.50
2022-08-30T08:44:46.433Z,4.28
2022-08-30T08:47:19.911Z,5.32
2022-08-30T08:49:54.274Z,4.75
2022-08-30T08:52:47.690Z,4.20
2022-08-30T08:55:21.250Z,4.43
2022-08-30T08:57:56.585Z,4.47
2022-08-30T09:00:25.481Z,4.93
2022-08-30T09:02:59.082Z,4.10
2022-08-30T09:05:37.763Z,5.40
2022-08-30T09:08:14.056Z,3.85
2022-08-30T09:10:55.376Z,3.92
2022-08-30T09:13:26.512Z,5.05
2022-08-30T09:15:57.675Z,3.78
2022-08-30T09:18:56.064Z,4.43
2022-08-30T09:21:29.739Z,4.93
2022-08-30T09:24:04.546Z,4.25
2022-08-30T09:26:37.489Z,3.85
2022-08-30T09:29:23.181Z,4.07
2022-08-30T09:32:10.181Z,4.43
2022-08-30T09:34:45.228Z,3.50
2022-08-30T09:37:35.702Z,3.00
2022-08-30T09:40:16.612Z,3.72
2022-08-30T09:43:03.508Z,3.20
2022-08-30T09:45:37.300Z,3.10
2022-08-30T09:48:33.351Z,4.18
2022-08-30T09:51:36.884Z,3.88
2022-08-30T09:54:20.841Z,3.55
2022-08-30T09:57:02.627Z,3.72
2022-08-30T09:59:45.966Z,3.40
2022-08-30T10:02:44.339Z,2.78
2022-08-30T10:05:21.976Z,3.80
2022-08-30T10:07:59.119Z,4.72
2022-08-30T10:10:36.045Z,3.70
2022-08-30T10:13:26.595Z,3.22
2022-08-30T10:16:05.018Z,3.50
2022-08-30T10:18:42.630Z,3.63
2022-08-30T10:21:22.019Z,3.53
2022-08-30T10:23:58.820Z,3.75
2022-08-30T10:26:41.685Z,3.28
2022-08-30T10:29:18.514Z,2.85
2022-08-30T10:31:52.169Z,2.92
2022-08-30T10:34:27.227Z,2.60
2022-08-30T10:37:07.157Z,3.03
2022-08-30T10:39:42.712Z,3.33
2022-08-30T10:42:18.365Z,3.05
2022-08-30T10:44:55.296Z,3.55
2022-08-30T10:47:32.741Z,3.22
2022-08-30T10:50:13.513Z,3.40
2022-08-30T10:52:48.649Z,3.80
2022-08-30T10:55:22.167Z,3.05
2022-08-30T10:57:53.330Z,2.97
2022-08-30T11:00:28.214Z,3.15
2022-08-30T11:03:34.488Z,2.75
2022-08-30T11:06:23.846Z,3.20
2022-08-30T11:09:15.368Z,3.00
2022-08-30T11:12:14.405Z,2.88
2022-08-30T11:14:48.421Z,3.03
2022-08-30T11:17:44.965Z,3.30
2022-08-30T11:20:25.405Z,2.92
2022-08-30T11:23:27.840Z,3.20
2022-08-30T11:26:03.776Z,2.60
2022-08-30T11:29:02.021Z,2.65
2022-08-30T11:31:39.750Z,3.70
2022-08-30T11:34:12.277Z,2.25
2022-08-30T11:37:09.656Z,3.40
2022-08-30T11:39:56.485Z,2.70
2022-08-30T11:42:31.838Z,3.28
2022-08-30T11:45:37.766Z,2.75
2022-08-30T11:48:31.246Z,2.63
2022-08-30T11:51:07.093Z,2.47
2022-08-30T11:53:46.400Z,1.98
2022-08-30T11:56:22.810Z,2.10
2022-08-30T11:58:56.891Z,2.33
2022-08-30T12:01:50.623Z,2.75
2022-08-30T12:04:41.706Z,2.20
2022-08-30T12:07:58.633Z,2.10
2022-08-30T12:10:41.876Z,2.28
2022-08-30T12:13:11.793Z,1.77
2022-08-30T12:15:59.170Z,2.38
2022-08-30T12:18:33.566Z,1.90
2022-08-30T12:21:24.329Z,2.08
2022-08-30T12:24:07.761Z,2.25
2022-08-30T12:26:45.141Z,2.13
2022-08-30T12:29:18.999Z,2.30
2022-08-30T12:31:49.953Z,2.80
2022-08-30T12:34:26.442Z,2.05
2022-08-30T12:37:09.006Z,1.90
2022-08-30T12:39:39.331Z,2.10
2022-08-30T12:42:22.165Z,2.10
2022-08-30T12:44:53.652Z,2.25
2022-08-30T12:47:30.066Z,2.55
2022-08-30T12:49:59.764Z,1.83
2022-08-30T12:52:36.260Z,2.08
2022-08-30T12:55:17.164Z,1.75
2022-08-30T12:58:00.709Z,2.20
2022-08-30T13:00:34.316Z,2.20
2022-08-30T13:03:15.555Z,1.95
2022-08-30T13:05:55.275Z,2.47
2022-08-30T13:08:29.676Z,2.55
2022-08-30T13:11:08.719Z,2.42
2022-08-30T13:13:44.514Z,2.53
2022-08-30T13:16:29.527Z,2.40
2022-08-30T13:19:23.821Z,2.22
2022-08-30T13:21:57.137Z,2.50
2022-08-30T13:24:28.353Z,2.40
2022-08-30T13:27:09.934Z,2.28
2022-08-30T13:29:38.578Z,2.78
2022-08-30T13:32:08.179Z,3.20
2022-08-30T13:34:37.670Z,3.20
2022-08-30T13:40:04.994Z,2.53
2022-08-30T13:42:33.484Z,2.30
2022-08-30T13:45:03.504Z,2.72
2022-08-30T13:47:34.461Z,2.28
2022-08-30T13:50:04.091Z,2.72
2022-08-30T13:52:32.522Z,2.67
2022-08-30T13:55:02.948Z,2.80
2022-08-30T14:00:22.253Z,2.17
2022-08-30T14:02:54.864Z,2.35
2022-08-30T14:11:07.484Z,2.08
2022-08-30T14:13:36.122Z,2.13
2022-08-30T14:18:59.092Z,1.92
2022-08-30T14:21:28.080Z,2.10
2022-08-30T14:23:58.823Z,1.60
2022-08-30T14:26:32.372Z,2.25
2022-08-30T14:29:03.823Z,1.83
2022-08-30T14:31:36.100Z,1.90
2022-08-30T14:34:08.703Z,2.13
2022-08-30T14:36:39.958Z,1.70
2022-08-30T14:39:11.609Z,2.17
2022-08-30T14:41:46.621Z,2.15
2022-08-30T14:44:16.887Z,1.90
2022-08-30T14:46:46.177Z,1.90
2022-08-30T14:49:16.378Z,1.95
2022-08-30T14:51:48.658Z,2.10
2022-08-30T14:54:26.701Z,1.88
2022-08-30T14:56:57.903Z,2.30
2022-08-30T14:59:29.569Z,2.10
2022-08-30T15:01:57.955Z,1.65
2022-08-30T15:04:28.831Z,2.03
2022-08-30T15:06:58.504Z,1.70
2022-08-30T15:09:57.564Z,2.00
2022-08-30T15:12:29.253Z,2.38
2022-08-30T15:14:59.289Z,1.85
2022-08-30T15:17:31.257Z,1.65
2022-08-30T15:20:02.012Z,1.73
2022-08-30T15:22:31.644Z,2.08
2022-08-30T15:25:03.120Z,1.73
2022-08-30T15:27:39.915Z,2.08
2022-08-30T15:30:11.086Z,1.90
2022-08-30T15:33:15.395Z,1.58
2022-08-30T15:35:49.369Z,1.63
2022-08-30T15:38:17.991Z,2.28
2022-08-30T15:40:47.346Z,1.50
2022-08-30T15:43:17.783Z,1.83
2022-08-30T15:45:46.959Z,1.60
2022-08-30T15:48:15.394Z,1.80
2022-08-30T15:50:44.157Z,1.58
2022-08-30T15:53:12.664Z,1.40
2022-08-30T15:55:41.553Z,2.00
2022-08-30T15:58:10.594Z,1.40
2022-08-30T16:00:44.641Z,1.50
2022-08-30T16:03:15.140Z,1.58
2022-08-30T16:05:44.270Z,1.58
2022-08-30T16:08:12.896Z,1.58
2022-08-30T16:10:44.351Z,1.70
2022-08-30T16:13:18.557Z,1.50
2022-08-30T16:15:49.021Z,1.30
2022-08-30T16:18:17.769Z,1.90
2022-08-30T16:20:47.541Z,1.30
2022-08-30T16:23:24.388Z,1.58
2022-08-30T16:26:04.167Z,1.45
2022-08-30T16:28:33.680Z,1.40
2022-08-30T16:31:07.779Z,1.83
2022-08-30T16:33:42.992Z,1.55
2022-08-30T16:36:15.396Z,1.40
2022-08-30T16:38:43.934Z,1.58
2022-08-30T16:41:20.592Z,1.55
2022-08-30T16:43:53.598Z,1.63
2022-08-30T16:46:27.750Z,1.50
2022-08-30T16:48:58.505Z,1.52
2022-08-30T16:51:32.206Z,1.40
2022-08-30T16:54:02.830Z,1.42
2022-08-30T16:56:32.967Z,1.60
2022-08-30T16:59:03.147Z,1.63
2022-08-30T17:01:38.966Z,1.40
2022-08-30T17:04:10.465Z,1.40
2022-08-30T17:06:39.135Z,1.75
2022-08-30T17:09:09.026Z,1.42
2022-08-30T17:11:40.247Z,1.67
2022-08-30T17:14:09.321Z,1.70
2022-08-30T17:16:42.630Z,1.60
2022-08-30T17:19:16.020Z,1.50
2022-08-30T17:21:55.243Z,1.40
2022-08-30T17:24:24.643Z,1.50
2022-08-30T17:26:58.222Z,1.50
2022-08-30T17:29:26.868Z,1.42
2022-08-30T17:31:59.079Z,1.23
2022-08-30T17:34:31.754Z,1.30
2022-08-30T17:37:02.792Z,1.25
2022-08-30T17:39:34.151Z,2.00
2022-08-30T17:42:02.995Z,1.60
2022-08-30T17:44:36.391Z,1.80
2022-08-30T17:47:11.662Z,1.40
2022-08-30T17:49:40.229Z,1.63
2022-08-30T17:52:12.466Z,1.50
2022-08-30T17:54:41.314Z,1.48
2022-08-30T17:57:13.456Z,1.40
2022-08-30T17:59:43.138Z,1.52
2022-08-30T18:02:13.856Z,1.33
2022-08-30T18:04:46.437Z,1.40
2022-08-30T18:07:20.702Z,1.67
2022-08-30T18:09:51.006Z,1.42
2022-08-30T18:12:21.223Z,1.40
2022-08-30T18:14:52.926Z,1.50
2022-08-30T18:17:23.671Z,1.40
2022-08-30T18:19:53.640Z,1.77
2022-08-30T18:22:22.139Z,1.42
2022-08-30T18:24:50.622Z,1.30
2022-08-30T18:27:19.695Z,1.30
2022-08-30T18:29:47.969Z,1.92
2022-08-30T18:32:19.068Z,1.33
2022-08-30T18:34:50.943Z,1.30
2022-08-30T18:37:19.577Z,1.27
2022-08-30T18:39:58.493Z,1.30
2022-08-30T18:42:29.856Z,1.40
2022-08-30T18:45:14.498Z,1.90
2022-08-30T18:47:44.478Z,1.60
2022-08-30T18:50:14.272Z,1.60
2022-08-30T18:52:45.179Z,1.30
2022-08-30T18:55:13.993Z,1.40
2022-08-30T18:57:42.536Z,1.60
2022-08-30T19:00:14.980Z,2.00
2022-08-30T19:02:44.043Z,1.63
2022-08-30T19:05:16.269Z,1.38
2022-08-30T19:07:45.995Z,1.40
2022-08-30T19:10:21.013Z,1.67
2022-08-30T19:12:49.512Z,1.40
2022-08-30T19:15:24.038Z,1.60
2022-08-30T19:17:53.264Z,1.63
2022-08-30T19:20:24.742Z,1.80
2022-08-30T19:23:10.307Z,1.42
2022-08-30T19:25:41.146Z,1.60
2022-08-30T19:28:14.235Z,1.40
2022-08-30T19:30:43.547Z,1.45
2022-08-30T19:33:11.927Z,1.33
2022-08-30T19:35:46.520Z,1.45
2022-08-30T19:38:17.850Z,1.58
2022-08-30T19:40:47.494Z,1.80
2022-08-30T19:43:17.478Z,1.50
2022-08-30T19:45:47.383Z,1.63
2022-08-30T19:48:15.849Z,1.70
2022-08-30T19:50:50.557Z,1.40
2022-08-30T19:53:19.554Z,1.40
2022-08-30T19:55:49.180Z,1.50
2022-08-30T19:58:17.972Z,1.38
2022-08-30T20:03:35.564Z,1.27
2022-08-30T20:06:05.651Z,1.58
2022-08-30T20:08:34.217Z,1.42
2022-08-30T20:11:03.106Z,1.90
2022-08-30T20:13:34.050Z,1.50
2022-08-30T20:16:03.204Z,2.05
2022-08-30T20:18:31.819Z,1.60
2022-08-30T20:21:00.042Z,1.60
2022-08-30T20:23:31.663Z,1.50
2022-08-30T20:26:04.772Z,1.35
2022-08-30T20:28:33.305Z,1.45
2022-08-30T20:31:06.388Z,1.80
2022-08-30T20:33:37.596Z,1.80
2022-08-30T20:36:06.670Z,1.60
2022-08-30T20:38:36.369Z,1.52
2022-08-30T20:41:10.692Z,1.70
2022-08-30T20:43:39.313Z,1.52
2022-08-30T20:46:12.339Z,1.77
2022-08-30T20:48:41.421Z,1.30
2022-08-30T20:51:11.143Z,1.55
2022-08-30T20:53:40.787Z,1.50
2022-08-30T20:56:12.679Z,1.70
2022-08-30T20:58:41.431Z,1.55
2022-08-30T21:01:12.227Z,1.40
2022-08-30T21:03:41.632Z,1.60
2022-08-30T21:06:11.652Z,1.70
2022-08-30T21:08:41.380Z,1.65
2022-08-30T21:11:09.950Z,1.55
2022-08-30T21:13:39.195Z,1.67
2022-08-30T21:16:07.731Z,1.73
2022-08-30T21:18:38.136Z,1.67
2022-08-30T21:21:11.092Z,1.67
2022-08-30T21:23:44.128Z,1.40
2022-08-30T21:26:14.907Z,1.92
2022-08-30T21:28:44.612Z,1.92
2022-08-30T21:31:20.364Z,1.73
2022-08-30T21:33:54.386Z,1.80
2022-08-30T21:36:41.270Z,1.67
2022-08-30T21:39:11.588Z,1.65
2022-08-30T21:41:40.660Z,1.73
2022-08-30T21:44:14.189Z,1.80
2022-08-30T21:46:43.409Z,1.63
2022-08-30T21:49:14.406Z,1.88
2022-08-30T21:51:47.616Z,1.83
2022-08-30T21:54:18.758Z,1.65
2022-08-30T21:56:49.950Z,1.85
2022-08-30T21:59:19.544Z,1.70
2022-08-30T22:01:50.700Z,1.50
2022-08-30T22:04:23.135Z,2.10
2022-08-30T22:07:07.017Z,1.40
2022-08-30T22:09:39.546Z,2.33
2022-08-30T22:12:08.796Z,1.90
2022-08-30T22:14:40.849Z,1.95
2022-08-30T22:17:09.481Z,2.03
2022-08-30T22:19:37.854Z,1.80
2022-08-30T22:22:09.700Z,1.95
2022-08-30T22:24:42.887Z,1.55
2022-08-30T22:27:11.542Z,1.90
2022-08-30T22:29:42.524Z,1.67
2022-08-30T22:32:11.512Z,1.67
2022-08-30T22:34:39.943Z,1.70
2022-08-30T22:37:08.293Z,1.50
2022-08-30T22:39:36.462Z,2.00
2022-08-30T22:42:07.814Z,1.90
2022-08-30T22:44:39.704Z,1.45
2022-08-30T22:47:08.735Z,1.55
2022-08-30T22:49:37.105Z,1.40
2022-08-30T22:52:05.766Z,1.73
2022-08-30T22:54:34.630Z,1.55
2022-08-30T22:57:05.736Z,1.60
2022-08-30T22:59:37.379Z,1.77
2022-08-30T23:02:06.363Z,1.80
2022-08-30T23:04:37.429Z,1.88
2022-08-30T23:07:07.830Z,1.63
2022-08-30T23:09:36.329Z,1.98
2022-08-30T23:12:06.244Z,1.58
2022-08-30T23:14:36.200Z,1.75
2022-08-30T23:17:04.549Z,1.60
2022-08-30T23:19:33.615Z,1.38
2022-08-30T23:22:02.748Z,1.77
2022-08-30T23:24:49.522Z,1.90
2022-08-30T23:27:36.448Z,2.00
2022-08-30T23:30:24.768Z,1.75
2022-08-30T23:33:10.620Z,1.95
2022-08-30T23:35:56.486Z,1.45
2022-08-30T23:38:41.901Z,1.88
2022-08-30T23:41:30.283Z,1.55
2022-08-30T23:44:20.342Z,1.42
2022-08-30T23:47:07.539Z,1.70
2022-08-30T23:49:53.726Z,1.85
2022-08-30T23:52:39.484Z,2.15
2022-08-30T23:55:26.346Z,2.10
2022-08-30T23:58:12.247Z,1.80
